sensor_id;sensor_type;location;lat;lon;timestamp;temperature;humidity
17442;DHT22;8838;50.144;8.176;2022-11-20T00:00:38;2.10;99.90
17442;DHT22;8838;50.144;8.176;2022-11-20T00:03:05;2.00;99.90
17442;DHT22;8838;50.144;8.176;2022-11-20T00:05:33;2.00;99.90
17442;DHT22;8838;50.144;8.176;2022-11-20T00:08:00;1.80;99.90
17442;DHT22;8838;50.144;8.176;2022-11-20T00:10:27;1.90;99.90
17442;DHT22;8838;50.144;8.176;2022-11-20T00:12:54;1.90;99.90
17442;DHT22;8838;50.144;8.176;2022-11-20T00:15:21;2.00;99.90
17442;DHT22;8838;50.144;8.176;2022-11-20T00:17:47;2.00;99.90
17442;DHT22;8838;50.144;8.176;2022-11-20T00:20:15;2.00;99.90
17442;DHT22;8838;50.144;8.176;2022-11-20T00:22:43;1.90;99.90
17442;DHT22;8838;50.144;8.176;2022-11-20T00:25:10;2.00;99.90
17442;DHT22;8838;50.144;8.176;2022-11-20T00:27:36;2.00;99.90
17442;DHT22;8838;50.144;8.176;2022-11-20T00:30:04;2.10;99.90
17442;DHT22;8838;50.144;8.176;2022-11-20T00:32:31;2.10;99.90
17442;DHT22;8838;50.144;8.176;2022-11-20T00:34:58;2.10;99.90
17442;DHT22;8838;50.144;8.176;2022-11-20T00:37:24;2.10;99.90
17442;DHT22;8838;50.144;8.176;2022-11-20T00:39:53;2.00;99.90
17442;DHT22;8838;50.144;8.176;2022-11-20T00:42:21;1.90;99.90
17442;DHT22;8838;50.144;8.176;2022-11-20T00:44:48;1.90;99.90
17442;DHT22;8838;50.144;8.176;2022-11-20T00:47:15;1.90;99.90
17442;DHT22;8838;50.144;8.176;2022-11-20T00:49:42;1.90;99.90
17442;DHT22;8838;50.144;8.176;2022-11-20T00:52:09;1.90;99.90
17442;DHT22;8838;50.144;8.176;2022-11-20T00:54:36;1.90;99.90
17442;DHT22;8838;50.144;8.176;2022-11-20T00:57:04;1.90;99.90
17442;DHT22;8838;50.144;8.176;2022-11-20T00:59:30;1.90;99.90
17442;DHT22;8838;50.144;8.176;2022-11-20T01:01:57;1.90;99.90
17442;DHT22;8838;50.144;8.176;2022-11-20T01:04:24;1.90;99.90
17442;DHT22;8838;50.144;8.176;2022-11-20T01:06:51;1.80;99.90
17442;DHT22;8838;50.144;8.176;2022-11-20T01:09:17;1.80;99.90
17442;DHT22;8838;50.144;8.176;2022-11-20T01:11:45;1.80;99.90
17442;DHT22;8838;50.144;8.176;2022-11-20T01:14:15;1.80;99.90
17442;DHT22;8838;50.144;8.176;2022-11-20T01:16:44;1.70;99.90
17442;DHT22;8838;50.144;8.176;2022-11-20T01:19:13;1.70;99.90
17442;DHT22;8838;50.144;8.176;2022-11-20T01:21:41;1.70;99.90
17442;DHT22;8838;50.144;8.176;2022-11-20T01:24:12;1.70;99.90
17442;DHT22;8838;50.144;8.176;2022-11-20T01:26:40;1.80;99.90
17442;DHT22;8838;50.144;8.176;2022-11-20T01:29:09;1.80;99.90
17442;DHT22;8838;50.144;8.176;2022-11-20T01:31:41;1.80;99.90
17442;DHT22;8838;50.144;8.176;2022-11-20T01:34:11;1.80;99.90
17442;DHT22;8838;50.144;8.176;2022-11-20T01:36:39;1.80;99.90
17442;DHT22;8838;50.144;8.176;2022-11-20T01:39:07;1.90;99.90
17442;DHT22;8838;50.144;8.176;2022-11-20T01:41:36;1.90;99.90
17442;DHT22;8838;50.144;8.176;2022-11-20T01:44:39;1.90;99.90
17442;DHT22;8838;50.144;8.176;2022-11-20T01:47:13;1.90;99.90
17442;DHT22;8838;50.144;8.176;2022-11-20T01:49:44;1.80;99.90
17442;DHT22;8838;50.144;8.176;2022-11-20T01:52:16;1.80;99.90
17442;DHT22;8838;50.144;8.176;2022-11-20T01:54:46;1.70;99.90
17442;DHT22;8838;50.144;8.176;2022-11-20T01:57:15;1.80;99.90
17442;DHT22;8838;50.144;8.176;2022-11-20T01:59:47;1.80;99.90
17442;DHT22;8838;50.144;8.176;2022-11-20T02:02:16;1.90;99.90
17442;DHT22;8838;50.144;8.176;2022-11-20T02:04:44;1.90;99.90
17442;DHT22;8838;50.144;8.176;2022-11-20T02:07:11;1.80;99.90
17442;DHT22;8838;50.144;8.176;2022-11-20T02:09:38;1.90;99.90
17442;DHT22;8838;50.144;8.176;2022-11-20T02:12:05;1.90;99.90
17442;DHT22;8838;50.144;8.176;2022-11-20T02:14:52;1.90;99.90
17442;DHT22;8838;50.144;8.176;2022-11-20T02:17:19;1.90;99.90
17442;DHT22;8838;50.144;8.176;2022-11-20T02:19:47;2.00;99.90
17442;DHT22;8838;50.144;8.176;2022-11-20T02:22:17;2.00;99.90
17442;DHT22;8838;50.144;8.176;2022-11-20T02:24:48;2.00;99.90
17442;DHT22;8838;50.144;8.176;2022-11-20T02:27:16;2.00;99.90
17442;DHT22;8838;50.144;8.176;2022-11-20T02:29:46;2.00;99.90
17442;DHT22;8838;50.144;8.176;2022-11-20T02:32:19;1.90;99.90
17442;DHT22;8838;50.144;8.176;2022-11-20T02:34:46;1.90;99.90
17442;DHT22;8838;50.144;8.176;2022-11-20T02:37:14;1.90;99.90
17442;DHT22;8838;50.144;8.176;2022-11-20T02:39:41;2.00;99.90
17442;DHT22;8838;50.144;8.176;2022-11-20T02:42:10;1.90;99.90
17442;DHT22;8838;50.144;8.176;2022-11-20T02:44:37;1.80;99.90
17442;DHT22;8838;50.144;8.176;2022-11-20T02:47:04;1.80;99.90
17442;DHT22;8838;50.144;8.176;2022-11-20T02:49:31;1.80;99.90
17442;DHT22;8838;50.144;8.176;2022-11-20T02:51:58;1.90;99.90
17442;DHT22;8838;50.144;8.176;2022-11-20T02:54:25;1.80;99.90
17442;DHT22;8838;50.144;8.176;2022-11-20T02:56:52;1.70;99.90
17442;DHT22;8838;50.144;8.176;2022-11-20T02:59:20;1.60;99.90
17442;DHT22;8838;50.144;8.176;2022-11-20T03:01:47;1.70;99.90
17442;DHT22;8838;50.144;8.176;2022-11-20T03:04:14;1.70;99.90
17442;DHT22;8838;50.144;8.176;2022-11-20T03:06:40;1.70;99.90
17442;DHT22;8838;50.144;8.176;2022-11-20T03:09:08;1.60;99.90
17442;DHT22;8838;50.144;8.176;2022-11-20T03:11:35;1.60;99.90
17442;DHT22;8838;50.144;8.176;2022-11-20T03:14:02;1.70;99.90
17442;DHT22;8838;50.144;8.176;2022-11-20T03:16:31;1.80;99.90
17442;DHT22;8838;50.144;8.176;2022-11-20T03:18:58;1.80;99.90
17442;DHT22;8838;50.144;8.176;2022-11-20T03:21:25;1.90;99.90
17442;DHT22;8838;50.144;8.176;2022-11-20T03:23:53;1.90;99.90
17442;DHT22;8838;50.144;8.176;2022-11-20T03:26:22;2.00;99.90
17442;DHT22;8838;50.144;8.176;2022-11-20T03:28:50;1.90;99.90
17442;DHT22;8838;50.144;8.176;2022-11-20T03:31:19;1.90;99.90
17442;DHT22;8838;50.144;8.176;2022-11-20T03:33:47;1.90;99.90
17442;DHT22;8838;50.144;8.176;2022-11-20T03:36:16;1.90;99.90
17442;DHT22;8838;50.144;8.176;2022-11-20T03:38:43;1.90;99.90
17442;DHT22;8838;50.144;8.176;2022-11-20T03:41:12;1.90;99.90
17442;DHT22;8838;50.144;8.176;2022-11-20T03:43:39;1.90;99.90
17442;DHT22;8838;50.144;8.176;2022-11-20T03:46:07;2.00;99.90
17442;DHT22;8838;50.144;8.176;2022-11-20T03:48:34;2.10;99.90
17442;DHT22;8838;50.144;8.176;2022-11-20T03:51:11;2.00;99.90
17442;DHT22;8838;50.144;8.176;2022-11-20T03:53:38;2.00;99.90
17442;DHT22;8838;50.144;8.176;2022-11-20T03:56:07;1.90;99.90
17442;DHT22;8838;50.144;8.176;2022-11-20T03:58:34;1.80;99.90
17442;DHT22;8838;50.144;8.176;2022-11-20T04:01:06;1.80;99.90
17442;DHT22;8838;50.144;8.176;2022-11-20T04:03:33;1.80;99.90
17442;DHT22;8838;50.144;8.176;2022-11-20T04:06:02;1.80;99.90
17442;DHT22;8838;50.144;8.176;2022-11-20T04:08:31;1.70;99.90
17442;DHT22;8838;50.144;8.176;2022-11-20T04:11:08;1.60;99.90
17442;DHT22;8838;50.144;8.176;2022-11-20T04:13:35;1.70;99.90
17442;DHT22;8838;50.144;8.176;2022-11-20T04:16:02;1.70;99.90
17442;DHT22;8838;50.144;8.176;2022-11-20T04:18:29;1.70;99.90
17442;DHT22;8838;50.144;8.176;2022-11-20T04:20:56;1.60;99.90
17442;DHT22;8838;50.144;8.176;2022-11-20T04:23:23;1.70;99.90
17442;DHT22;8838;50.144;8.176;2022-11-20T04:25:51;1.80;99.90
17442;DHT22;8838;50.144;8.176;2022-11-20T04:28:19;1.80;99.90
17442;DHT22;8838;50.144;8.176;2022-11-20T04:30:45;1.70;99.90
17442;DHT22;8838;50.144;8.176;2022-11-20T04:33:12;1.60;99.90
17442;DHT22;8838;50.144;8.176;2022-11-20T04:35:39;1.60;99.90
17442;DHT22;8838;50.144;8.176;2022-11-20T04:38:06;1.70;99.90
17442;DHT22;8838;50.144;8.176;2022-11-20T04:40:32;1.80;99.90
17442;DHT22;8838;50.144;8.176;2022-11-20T04:43:01;1.80;99.90
17442;DHT22;8838;50.144;8.176;2022-11-20T04:45:27;1.90;99.90
17442;DHT22;8838;50.144;8.176;2022-11-20T04:47:54;2.00;99.90
17442;DHT22;8838;50.144;8.176;2022-11-20T04:50:21;2.00;99.90
17442;DHT22;8838;50.144;8.176;2022-11-20T04:52:48;2.10;99.90
17442;DHT22;8838;50.144;8.176;2022-11-20T04:55:15;2.00;99.90
17442;DHT22;8838;50.144;8.176;2022-11-20T04:57:41;2.00;99.90
17442;DHT22;8838;50.144;8.176;2022-11-20T05:00:11;2.00;99.90
17442;DHT22;8838;50.144;8.176;2022-11-20T05:02:38;1.90;99.90
17442;DHT22;8838;50.144;8.176;2022-11-20T05:05:05;1.90;99.90
17442;DHT22;8838;50.144;8.176;2022-11-20T05:07:32;2.00;99.90
17442;DHT22;8838;50.144;8.176;2022-11-20T05:09:58;1.90;99.90
17442;DHT22;8838;50.144;8.176;2022-11-20T05:12:25;1.90;99.90
17442;DHT22;8838;50.144;8.176;2022-11-20T05:14:52;1.80;99.90
17442;DHT22;8838;50.144;8.176;2022-11-20T05:17:20;1.80;99.90
17442;DHT22;8838;50.144;8.176;2022-11-20T05:19:47;1.80;99.90
17442;DHT22;8838;50.144;8.176;2022-11-20T05:22:14;1.80;99.90
17442;DHT22;8838;50.144;8.176;2022-11-20T05:24:41;1.80;99.90
17442;DHT22;8838;50.144;8.176;2022-11-20T05:27:07;1.80;99.90
17442;DHT22;8838;50.144;8.176;2022-11-20T05:29:34;1.80;99.90
17442;DHT22;8838;50.144;8.176;2022-11-20T05:32:01;1.80;99.90
17442;DHT22;8838;50.144;8.176;2022-11-20T05:34:29;1.80;99.90
17442;DHT22;8838;50.144;8.176;2022-11-20T05:36:56;1.90;99.90
17442;DHT22;8838;50.144;8.176;2022-11-20T05:39:22;1.90;99.90
17442;DHT22;8838;50.144;8.176;2022-11-20T05:41:49;2.00;99.90
17442;DHT22;8838;50.144;8.176;2022-11-20T05:44:37;2.00;99.90
17442;DHT22;8838;50.144;8.176;2022-11-20T05:47:03;2.10;99.90
17442;DHT22;8838;50.144;8.176;2022-11-20T05:49:32;2.10;99.90
17442;DHT22;8838;50.144;8.176;2022-11-20T05:51:59;2.10;99.90
17442;DHT22;8838;50.144;8.176;2022-11-20T05:54:25;2.10;99.90
17442;DHT22;8838;50.144;8.176;2022-11-20T05:56:52;2.10;99.90
17442;DHT22;8838;50.144;8.176;2022-11-20T05:59:19;2.10;99.90
17442;DHT22;8838;50.144;8.176;2022-11-20T06:01:46;2.10;99.90
17442;DHT22;8838;50.144;8.176;2022-11-20T06:04:12;2.10;99.90
17442;DHT22;8838;50.144;8.176;2022-11-20T06:06:41;2.20;99.90
17442;DHT22;8838;50.144;8.176;2022-11-20T06:09:07;2.10;99.90
17442;DHT22;8838;50.144;8.176;2022-11-20T06:11:34;1.90;99.90
17442;DHT22;8838;50.144;8.176;2022-11-20T06:14:01;1.90;99.90
17442;DHT22;8838;50.144;8.176;2022-11-20T06:16:28;1.80;99.90
17442;DHT22;8838;50.144;8.176;2022-11-20T06:18:55;1.70;99.90
17442;DHT22;8838;50.144;8.176;2022-11-20T06:21:24;1.70;99.90
17442;DHT22;8838;50.144;8.176;2022-11-20T06:23:53;1.80;99.90
17442;DHT22;8838;50.144;8.176;2022-11-20T06:26:21;1.70;99.90
17442;DHT22;8838;50.144;8.176;2022-11-20T06:28:48;1.70;99.90
17442;DHT22;8838;50.144;8.176;2022-11-20T06:31:17;1.70;99.90
17442;DHT22;8838;50.144;8.176;2022-11-20T06:33:44;1.60;99.90
17442;DHT22;8838;50.144;8.176;2022-11-20T06:36:12;1.60;99.90
17442;DHT22;8838;50.144;8.176;2022-11-20T06:38:40;1.60;99.90
17442;DHT22;8838;50.144;8.176;2022-11-20T06:41:10;1.70;99.90
17442;DHT22;8838;50.144;8.176;2022-11-20T06:43:37;1.70;99.90
17442;DHT22;8838;50.144;8.176;2022-11-20T06:46:04;1.80;99.90
17442;DHT22;8838;50.144;8.176;2022-11-20T06:48:31;1.80;99.90
17442;DHT22;8838;50.144;8.176;2022-11-20T06:50:58;1.90;99.90
17442;DHT22;8838;50.144;8.176;2022-11-20T06:53:25;2.00;99.90
17442;DHT22;8838;50.144;8.176;2022-11-20T06:55:55;2.10;99.90
17442;DHT22;8838;50.144;8.176;2022-11-20T06:58:25;2.10;99.90
17442;DHT22;8838;50.144;8.176;2022-11-20T07:00:52;2.10;99.90
17442;DHT22;8838;50.144;8.176;2022-11-20T07:03:19;2.20;99.90
17442;DHT22;8838;50.144;8.176;2022-11-20T07:05:46;2.10;99.90
17442;DHT22;8838;50.144;8.176;2022-11-20T07:08:12;2.20;99.90
17442;DHT22;8838;50.144;8.176;2022-11-20T07:10:39;2.20;99.90
17442;DHT22;8838;50.144;8.176;2022-11-20T07:13:06;2.30;99.90
17442;DHT22;8838;50.144;8.176;2022-11-20T07:15:34;2.30;99.90
17442;DHT22;8838;50.144;8.176;2022-11-20T07:18:01;2.30;99.90
17442;DHT22;8838;50.144;8.176;2022-11-20T07:20:28;2.30;99.90
17442;DHT22;8838;50.144;8.176;2022-11-20T07:22:55;2.30;99.90
17442;DHT22;8838;50.144;8.176;2022-11-20T07:25:22;2.20;99.90
17442;DHT22;8838;50.144;8.176;2022-11-20T07:27:49;2.10;99.90
17442;DHT22;8838;50.144;8.176;2022-11-20T07:30:16;2.10;99.90
17442;DHT22;8838;50.144;8.176;2022-11-20T07:32:46;2.20;99.90
17442;DHT22;8838;50.144;8.176;2022-11-20T07:35:13;2.30;99.90
17442;DHT22;8838;50.144;8.176;2022-11-20T07:37:39;2.40;99.90
17442;DHT22;8838;50.144;8.176;2022-11-20T07:40:07;2.40;99.90
17442;DHT22;8838;50.144;8.176;2022-11-20T07:42:34;2.30;99.90
17442;DHT22;8838;50.144;8.176;2022-11-20T07:45:00;2.40;99.90
17442;DHT22;8838;50.144;8.176;2022-11-20T07:47:27;2.50;99.90
17442;DHT22;8838;50.144;8.176;2022-11-20T07:49:55;2.60;99.90
17442;DHT22;8838;50.144;8.176;2022-11-20T07:52:22;2.60;99.90
17442;DHT22;8838;50.144;8.176;2022-11-20T07:54:49;2.70;99.90
17442;DHT22;8838;50.144;8.176;2022-11-20T07:57:16;2.60;99.90
17442;DHT22;8838;50.144;8.176;2022-11-20T07:59:42;2.50;99.90
17442;DHT22;8838;50.144;8.176;2022-11-20T08:02:11;2.50;99.90
17442;DHT22;8838;50.144;8.176;2022-11-20T08:04:37;2.60;99.90
17442;DHT22;8838;50.144;8.176;2022-11-20T08:07:05;2.40;99.90
17442;DHT22;8838;50.144;8.176;2022-11-20T08:09:32;2.50;99.90
17442;DHT22;8838;50.144;8.176;2022-11-20T08:11:59;2.70;99.90
17442;DHT22;8838;50.144;8.176;2022-11-20T08:14:43;2.80;99.90
17442;DHT22;8838;50.144;8.176;2022-11-20T08:17:10;2.90;99.90
17442;DHT22;8838;50.144;8.176;2022-11-20T08:19:37;3.00;99.90
17442;DHT22;8838;50.144;8.176;2022-11-20T08:22:05;3.20;99.90
17442;DHT22;8838;50.144;8.176;2022-11-20T08:24:32;3.20;99.90
17442;DHT22;8838;50.144;8.176;2022-11-20T08:26:59;3.30;99.90
17442;DHT22;8838;50.144;8.176;2022-11-20T08:29:26;3.40;99.90
17442;DHT22;8838;50.144;8.176;2022-11-20T08:31:53;3.40;99.90
17442;DHT22;8838;50.144;8.176;2022-11-20T08:34:20;3.40;99.90
17442;DHT22;8838;50.144;8.176;2022-11-20T08:36:47;3.40;99.90
17442;DHT22;8838;50.144;8.176;2022-11-20T08:39:15;3.50;99.90
17442;DHT22;8838;50.144;8.176;2022-11-20T08:41:42;3.50;99.90
17442;DHT22;8838;50.144;8.176;2022-11-20T08:44:09;3.50;99.90
17442;DHT22;8838;50.144;8.176;2022-11-20T08:46:37;3.40;99.90
17442;DHT22;8838;50.144;8.176;2022-11-20T08:49:06;3.40;99.90
17442;DHT22;8838;50.144;8.176;2022-11-20T08:51:33;3.40;99.90
17442;DHT22;8838;50.144;8.176;2022-11-20T08:54:00;3.50;99.90
17442;DHT22;8838;50.144;8.176;2022-11-20T08:56:28;3.50;99.90
17442;DHT22;8838;50.144;8.176;2022-11-20T08:58:55;3.50;99.90
17442;DHT22;8838;50.144;8.176;2022-11-20T09:01:23;3.50;99.90
17442;DHT22;8838;50.144;8.176;2022-11-20T09:03:50;3.50;99.90
17442;DHT22;8838;50.144;8.176;2022-11-20T09:06:17;3.30;99.90
17442;DHT22;8838;50.144;8.176;2022-11-20T09:08:44;3.40;99.90
17442;DHT22;8838;50.144;8.176;2022-11-20T09:11:11;3.40;99.90
17442;DHT22;8838;50.144;8.176;2022-11-20T09:13:39;3.40;99.90
17442;DHT22;8838;50.144;8.176;2022-11-20T09:16:08;3.30;99.90
17442;DHT22;8838;50.144;8.176;2022-11-20T09:18:36;3.20;99.90
17442;DHT22;8838;50.144;8.176;2022-11-20T09:21:05;3.20;99.90
17442;DHT22;8838;50.144;8.176;2022-11-20T09:23:35;3.20;99.90
17442;DHT22;8838;50.144;8.176;2022-11-20T09:26:03;3.20;99.90
17442;DHT22;8838;50.144;8.176;2022-11-20T09:28:30;3.20;99.90
17442;DHT22;8838;50.144;8.176;2022-11-20T09:30:58;3.20;99.90
17442;DHT22;8838;50.144;8.176;2022-11-20T09:33:25;3.20;99.90
17442;DHT22;8838;50.144;8.176;2022-11-20T09:35:52;3.20;99.90
17442;DHT22;8838;50.144;8.176;2022-11-20T09:38:19;3.20;99.90
17442;DHT22;8838;50.144;8.176;2022-11-20T09:40:51;3.30;99.90
17442;DHT22;8838;50.144;8.176;2022-11-20T09:43:23;3.30;99.90
17442;DHT22;8838;50.144;8.176;2022-11-20T09:46:06;3.40;99.90
17442;DHT22;8838;50.144;8.176;2022-11-20T09:48:53;3.40;99.90
17442;DHT22;8838;50.144;8.176;2022-11-20T09:51:31;3.50;99.90
17442;DHT22;8838;50.144;8.176;2022-11-20T09:54:13;3.50;99.90
17442;DHT22;8838;50.144;8.176;2022-11-20T09:56:43;3.50;99.90
17442;DHT22;8838;50.144;8.176;2022-11-20T09:59:20;3.50;99.90
17442;DHT22;8838;50.144;8.176;2022-11-20T10:01:51;3.60;99.90
17442;DHT22;8838;50.144;8.176;2022-11-20T10:04:20;3.60;99.90
17442;DHT22;8838;50.144;8.176;2022-11-20T10:06:51;3.60;99.90
17442;DHT22;8838;50.144;8.176;2022-11-20T10:09:25;3.60;99.90
17442;DHT22;8838;50.144;8.176;2022-11-20T10:12:05;3.70;99.90
17442;DHT22;8838;50.144;8.176;2022-11-20T10:14:42;3.60;99.90
17442;DHT22;8838;50.144;8.176;2022-11-20T10:17:23;3.60;99.90
17442;DHT22;8838;50.144;8.176;2022-11-20T10:20:02;3.60;99.90
17442;DHT22;8838;50.144;8.176;2022-11-20T10:22:44;3.60;99.90
17442;DHT22;8838;50.144;8.176;2022-11-20T10:25:15;3.60;99.90
17442;DHT22;8838;50.144;8.176;2022-11-20T10:28:10;3.70;99.90
17442;DHT22;8838;50.144;8.176;2022-11-20T10:30:43;3.80;99.90
17442;DHT22;8838;50.144;8.176;2022-11-20T10:33:17;3.80;99.90
17442;DHT22;8838;50.144;8.176;2022-11-20T10:35:52;3.90;99.90
17442;DHT22;8838;50.144;8.176;2022-11-20T10:38:23;3.90;99.90
17442;DHT22;8838;50.144;8.176;2022-11-20T10:40:54;3.90;99.90
17442;DHT22;8838;50.144;8.176;2022-11-20T10:43:44;4.00;99.90
17442;DHT22;8838;50.144;8.176;2022-11-20T10:46:14;4.00;99.90
17442;DHT22;8838;50.144;8.176;2022-11-20T10:48:44;4.00;99.90
17442;DHT22;8838;50.144;8.176;2022-11-20T10:51:18;4.10;99.90
17442;DHT22;8838;50.144;8.176;2022-11-20T10:53:57;4.10;99.90
17442;DHT22;8838;50.144;8.176;2022-11-20T10:56:33;4.20;99.90
17442;DHT22;8838;50.144;8.176;2022-11-20T10:59:19;4.20;99.90
17442;DHT22;8838;50.144;8.176;2022-11-20T11:01:51;4.30;99.90
17442;DHT22;8838;50.144;8.176;2022-11-20T11:04:30;4.40;99.90
17442;DHT22;8838;50.144;8.176;2022-11-20T11:07:06;4.50;99.90
17442;DHT22;8838;50.144;8.176;2022-11-20T11:09:39;4.60;99.90
17442;DHT22;8838;50.144;8.176;2022-11-20T11:12:08;4.60;99.90
17442;DHT22;8838;50.144;8.176;2022-11-20T11:14:44;4.60;99.90
17442;DHT22;8838;50.144;8.176;2022-11-20T11:17:21;4.50;99.90
17442;DHT22;8838;50.144;8.176;2022-11-20T11:20:06;4.50;99.90
17442;DHT22;8838;50.144;8.176;2022-11-20T11:22:45;4.60;99.90
17442;DHT22;8838;50.144;8.176;2022-11-20T11:25:29;4.70;99.90
17442;DHT22;8838;50.144;8.176;2022-11-20T11:28:00;4.90;99.90
17442;DHT22;8838;50.144;8.176;2022-11-20T11:30:29;5.10;99.90
17442;DHT22;8838;50.144;8.176;2022-11-20T11:33:05;5.50;99.90
17442;DHT22;8838;50.144;8.176;2022-11-20T11:35:43;5.70;99.90
17442;DHT22;8838;50.144;8.176;2022-11-20T11:38:15;5.70;99.90
17442;DHT22;8838;50.144;8.176;2022-11-20T11:40:43;5.70;99.90
17442;DHT22;8838;50.144;8.176;2022-11-20T11:43:18;5.90;99.90
17442;DHT22;8838;50.144;8.176;2022-11-20T11:46:06;5.90;99.90
17442;DHT22;8838;50.144;8.176;2022-11-20T11:48:38;5.80;99.90
17442;DHT22;8838;50.144;8.176;2022-11-20T11:51:08;5.80;99.90
17442;DHT22;8838;50.144;8.176;2022-11-20T11:53:42;5.90;99.90
17442;DHT22;8838;50.144;8.176;2022-11-20T11:56:11;5.80;99.90
17442;DHT22;8838;50.144;8.176;2022-11-20T11:58:44;5.80;99.90
17442;DHT22;8838;50.144;8.176;2022-11-20T12:01:24;5.90;99.90
17442;DHT22;8838;50.144;8.176;2022-11-20T12:04:02;6.00;99.90
17442;DHT22;8838;50.144;8.176;2022-11-20T12:06:32;6.00;99.90
17442;DHT22;8838;50.144;8.176;2022-11-20T12:09:03;6.00;99.90
17442;DHT22;8838;50.144;8.176;2022-11-20T12:11:34;5.90;99.90
17442;DHT22;8838;50.144;8.176;2022-11-20T12:14:11;5.80;99.90
17442;DHT22;8838;50.144;8.176;2022-11-20T12:16:40;5.70;99.90
17442;DHT22;8838;50.144;8.176;2022-11-20T12:19:09;5.60;99.90
17442;DHT22;8838;50.144;8.176;2022-11-20T12:21:46;5.50;99.90
17442;DHT22;8838;50.144;8.176;2022-11-20T12:24:36;5.40;99.90
17442;DHT22;8838;50.144;8.176;2022-11-20T12:27:24;5.40;99.90
17442;DHT22;8838;50.144;8.176;2022-11-20T12:29:57;5.50;99.90
17442;DHT22;8838;50.144;8.176;2022-11-20T12:33:07;5.40;99.90
17442;DHT22;8838;50.144;8.176;2022-11-20T12:35:44;5.40;99.90
17442;DHT22;8838;50.144;8.176;2022-11-20T12:38:35;5.50;99.90
17442;DHT22;8838;50.144;8.176;2022-11-20T12:41:11;5.50;99.90
17442;DHT22;8838;50.144;8.176;2022-11-20T12:43:43;5.40;99.90
17442;DHT22;8838;50.144;8.176;2022-11-20T12:46:34;5.20;99.90
17442;DHT22;8838;50.144;8.176;2022-11-20T12:49:20;5.00;99.90
17442;DHT22;8838;50.144;8.176;2022-11-20T12:52:02;5.00;99.90
17442;DHT22;8838;50.144;8.176;2022-11-20T12:54:56;5.00;99.90
17442;DHT22;8838;50.144;8.176;2022-11-20T12:57:29;5.00;99.90
17442;DHT22;8838;50.144;8.176;2022-11-20T13:00:10;5.20;99.90
17442;DHT22;8838;50.144;8.176;2022-11-20T13:02:52;5.10;99.90
17442;DHT22;8838;50.144;8.176;2022-11-20T13:05:29;5.20;99.90
17442;DHT22;8838;50.144;8.176;2022-11-20T13:07:58;5.30;99.90
17442;DHT22;8838;50.144;8.176;2022-11-20T13:10:35;5.40;99.90
17442;DHT22;8838;50.144;8.176;2022-11-20T13:13:10;5.50;99.90
17442;DHT22;8838;50.144;8.176;2022-11-20T13:15:47;5.60;99.90
17442;DHT22;8838;50.144;8.176;2022-11-20T13:18:17;5.70;99.90
17442;DHT22;8838;50.144;8.176;2022-11-20T13:20:45;5.70;99.90
17442;DHT22;8838;50.144;8.176;2022-11-20T13:23:23;5.80;99.90
17442;DHT22;8838;50.144;8.176;2022-11-20T13:26:03;5.90;99.90
17442;DHT22;8838;50.144;8.176;2022-11-20T13:28:31;5.90;99.90
17442;DHT22;8838;50.144;8.176;2022-11-20T13:30:58;6.00;99.90
17442;DHT22;8838;50.144;8.176;2022-11-20T13:33:30;5.80;99.90
17442;DHT22;8838;50.144;8.176;2022-11-20T13:36:00;5.80;99.90
17442;DHT22;8838;50.144;8.176;2022-11-20T13:38:27;5.80;99.90
17442;DHT22;8838;50.144;8.176;2022-11-20T13:40:57;5.80;99.90
17442;DHT22;8838;50.144;8.176;2022-11-20T13:43:47;5.70;99.90
17442;DHT22;8838;50.144;8.176;2022-11-20T13:46:14;5.60;99.90
17442;DHT22;8838;50.144;8.176;2022-11-20T13:48:44;5.50;99.90
17442;DHT22;8838;50.144;8.176;2022-11-20T13:51:24;5.40;99.90
17442;DHT22;8838;50.144;8.176;2022-11-20T13:54:10;5.30;99.90
17442;DHT22;8838;50.144;8.176;2022-11-20T13:56:52;5.20;99.90
17442;DHT22;8838;50.144;8.176;2022-11-20T13:59:33;5.00;99.90
17442;DHT22;8838;50.144;8.176;2022-11-20T14:02:01;5.00;99.90
17442;DHT22;8838;50.144;8.176;2022-11-20T14:04:32;5.00;99.90
17442;DHT22;8838;50.144;8.176;2022-11-20T14:07:00;4.90;99.90
17442;DHT22;8838;50.144;8.176;2022-11-20T14:09:29;4.90;99.90
17442;DHT22;8838;50.144;8.176;2022-11-20T14:11:57;4.80;99.90
17442;DHT22;8838;50.144;8.176;2022-11-20T14:14:25;4.90;99.90
17442;DHT22;8838;50.144;8.176;2022-11-20T14:17:04;4.80;99.90
17442;DHT22;8838;50.144;8.176;2022-11-20T14:19:31;4.80;99.90
17442;DHT22;8838;50.144;8.176;2022-11-20T14:22:15;4.70;99.90
17442;DHT22;8838;50.144;8.176;2022-11-20T14:24:44;4.60;99.90
17442;DHT22;8838;50.144;8.176;2022-11-20T14:27:14;4.60;99.90
17442;DHT22;8838;50.144;8.176;2022-11-20T14:29:42;4.60;99.90
17442;DHT22;8838;50.144;8.176;2022-11-20T14:32:10;4.60;99.90
17442;DHT22;8838;50.144;8.176;2022-11-20T14:34:39;4.60;99.90
17442;DHT22;8838;50.144;8.176;2022-11-20T14:37:11;4.50;99.90
17442;DHT22;8838;50.144;8.176;2022-11-20T14:39:41;4.60;99.90
17442;DHT22;8838;50.144;8.176;2022-11-20T14:42:16;4.60;99.90
17442;DHT22;8838;50.144;8.176;2022-11-20T14:44:44;4.70;99.90
17442;DHT22;8838;50.144;8.176;2022-11-20T14:47:13;4.70;99.90
17442;DHT22;8838;50.144;8.176;2022-11-20T14:49:41;4.70;99.90
17442;DHT22;8838;50.144;8.176;2022-11-20T14:52:14;4.80;99.90
17442;DHT22;8838;50.144;8.176;2022-11-20T14:54:46;4.90;99.90
17442;DHT22;8838;50.144;8.176;2022-11-20T14:57:25;4.90;99.90
17442;DHT22;8838;50.144;8.176;2022-11-20T15:00:04;4.90;99.90
17442;DHT22;8838;50.144;8.176;2022-11-20T15:02:31;4.90;99.90
17442;DHT22;8838;50.144;8.176;2022-11-20T15:05:00;4.90;99.90
17442;DHT22;8838;50.144;8.176;2022-11-20T15:07:30;4.90;99.90
17442;DHT22;8838;50.144;8.176;2022-11-20T15:10:02;4.90;99.90
17442;DHT22;8838;50.144;8.176;2022-11-20T15:12:32;4.90;99.90
17442;DHT22;8838;50.144;8.176;2022-11-20T15:14:59;4.80;99.90
17442;DHT22;8838;50.144;8.176;2022-11-20T15:17:27;4.80;99.90
17442;DHT22;8838;50.144;8.176;2022-11-20T15:19:54;4.80;99.90
17442;DHT22;8838;50.144;8.176;2022-11-20T15:22:21;4.80;99.90
17442;DHT22;8838;50.144;8.176;2022-11-20T15:24:48;4.80;99.90
17442;DHT22;8838;50.144;8.176;2022-11-20T15:27:15;4.70;99.90
17442;DHT22;8838;50.144;8.176;2022-11-20T15:29:43;4.70;99.90
17442;DHT22;8838;50.144;8.176;2022-11-20T15:32:10;4.70;99.90
17442;DHT22;8838;50.144;8.176;2022-11-20T15:34:36;4.70;99.90
17442;DHT22;8838;50.144;8.176;2022-11-20T15:37:03;4.60;99.90
17442;DHT22;8838;50.144;8.176;2022-11-20T15:39:30;4.70;99.90
17442;DHT22;8838;50.144;8.176;2022-11-20T15:41:57;4.70;99.90
17442;DHT22;8838;50.144;8.176;2022-11-20T15:44:23;4.60;99.90
17442;DHT22;8838;50.144;8.176;2022-11-20T15:46:52;4.60;99.90
17442;DHT22;8838;50.144;8.176;2022-11-20T15:49:18;4.60;99.90
17442;DHT22;8838;50.144;8.176;2022-11-20T15:51:48;4.70;99.90
17442;DHT22;8838;50.144;8.176;2022-11-20T15:54:16;4.60;99.90
17442;DHT22;8838;50.144;8.176;2022-11-20T15:56:45;4.70;99.90
17442;DHT22;8838;50.144;8.176;2022-11-20T15:59:12;4.60;99.90
17442;DHT22;8838;50.144;8.176;2022-11-20T16:01:40;4.50;99.90
17442;DHT22;8838;50.144;8.176;2022-11-20T16:04:11;4.60;99.90
17442;DHT22;8838;50.144;8.176;2022-11-20T16:06:38;4.40;99.90
17442;DHT22;8838;50.144;8.176;2022-11-20T16:09:05;4.40;99.90
17442;DHT22;8838;50.144;8.176;2022-11-20T16:11:32;4.40;99.90
17442;DHT22;8838;50.144;8.176;2022-11-20T16:13:59;4.40;99.90
17442;DHT22;8838;50.144;8.176;2022-11-20T16:16:43;4.40;99.90
17442;DHT22;8838;50.144;8.176;2022-11-20T16:19:12;4.40;99.90
17442;DHT22;8838;50.144;8.176;2022-11-20T16:21:41;4.50;99.90